createdAt,value
2019-05-30T00:01:27.650Z,100527.33
2019-05-30T00:04:17.914Z,100530.55
2019-05-30T00:07:11.013Z,100525.80
2019-05-30T00:10:00.579Z,100516.30
2019-05-30T00:12:50.865Z,100514.64
2019-05-30T00:15:41.102Z,100513.52
2019-05-30T00:18:31.313Z,100518.38
2019-05-30T00:21:21.557Z,100519.50
2019-05-30T00:24:12.075Z,100515.59
2019-05-30T00:27:02.564Z,100515.14
2019-05-30T00:29:52.925Z,100504.98
2019-05-30T00:32:43.293Z,100510.71
2019-05-30T00:35:33.524Z,100510.17
2019-05-30T00:38:23.840Z,100513.54
2019-05-30T00:41:14.069Z,100510.92
2019-05-30T00:44:04.414Z,100516.28
2019-05-30T00:46:56.021Z,100516.18
2019-05-30T00:49:46.476Z,100524.36
2019-05-30T00:52:36.821Z,100524.76
2019-05-30T00:55:27.098Z,100525.42
2019-05-30T00:58:17.567Z,100532.70
2019-05-30T01:01:07.656Z,100530.05
2019-05-30T01:03:58.981Z,100536.54
2019-05-30T01:06:49.143Z,100548.72
2019-05-30T01:09:39.464Z,100543.97
2019-05-30T01:12:29.627Z,100542.95
2019-05-30T01:15:19.961Z,100546.88
2019-05-30T01:18:10.182Z,100545.75
2019-05-30T01:21:01.322Z,100554.09
2019-05-30T01:23:51.321Z,100549.16
2019-05-30T01:26:41.345Z,100544.95
2019-05-30T01:29:31.365Z,100548.53
2019-05-30T01:32:31.152Z,100552.62
2019-05-30T01:35:21.375Z,100565.38
2019-05-30T01:38:11.455Z,100560.51
2019-05-30T01:41:02.352Z,100558.66
2019-05-30T01:43:52.803Z,100557.70
2019-05-30T01:46:43.006Z,100546.61
2019-05-30T01:49:33.108Z,100549.20
2019-05-30T01:52:23.646Z,100549.70
2019-05-30T01:55:14.156Z,100552.55
2019-05-30T01:58:05.069Z,100554.53
2019-05-30T02:00:55.142Z,100545.13
2019-05-30T02:03:45.188Z,100538.49
2019-05-30T02:06:38.065Z,100548.50
2019-05-30T02:09:27.411Z,100538.47
2019-05-30T02:12:17.727Z,100537.23
2019-05-30T02:15:10.014Z,100533.77
2019-05-30T02:18:01.476Z,100540.19
2019-05-30T02:20:51.501Z,100546.30
2019-05-30T02:23:41.811Z,100551.37
2019-05-30T02:26:32.073Z,100553.27
2019-05-30T02:29:22.534Z,100560.20
2019-05-30T02:32:13.018Z,100563.89
2019-05-30T02:35:04.803Z,100581.21
2019-05-30T02:37:54.973Z,100578.47
2019-05-30T02:40:45.104Z,100583.24
2019-05-30T02:43:36.276Z,100577.13
2019-05-30T02:46:26.584Z,100581.19
2019-05-30T02:49:16.763Z,100574.00
2019-05-30T02:52:08.558Z,100570.98
2019-05-30T02:54:58.939Z,100580.82
2019-05-30T02:57:49.177Z,100578.40
2019-05-30T03:00:39.421Z,100583.47
2019-05-30T03:03:29.805Z,100594.41
2019-05-30T03:06:20.214Z,100599.30
2019-05-30T03:09:12.951Z,100601.14
2019-05-30T03:12:04.168Z,100595.70
2019-05-30T03:14:55.792Z,100601.25
2019-05-30T03:17:46.155Z,100603.98
2019-05-30T03:20:36.439Z,100606.20
2019-05-30T03:23:27.121Z,100613.81
2019-05-30T03:26:17.471Z,100618.75
2019-05-30T03:29:09.502Z,100614.69
2019-05-30T03:32:33.485Z,100617.02
2019-05-30T03:34:51.490Z,100618.57
2019-05-30T03:37:41.956Z,100621.77
2019-05-30T03:40:32.239Z,100628.31
2019-05-30T03:43:23.598Z,100642.23
2019-05-30T03:46:17.626Z,100650.48
2019-05-30T03:49:09.123Z,100653.31
2019-05-30T03:52:00.273Z,100653.19
2019-05-30T03:54:51.174Z,100656.81
2019-05-30T03:57:46.872Z,100661.28
2019-05-30T04:00:42.249Z,100664.27
2019-05-30T04:03:42.251Z,100671.79
2019-05-30T04:06:34.149Z,100681.39
2019-05-30T04:09:25.810Z,100680.36
2019-05-30T04:12:42.489Z,100685.41
2019-05-30T04:15:33.743Z,100688.29
2019-05-30T04:18:24.697Z,100686.98
2019-05-30T04:21:18.513Z,100684.03
2019-05-30T04:24:09.730Z,100689.91
2019-05-30T04:27:01.340Z,100685.95
2019-05-30T04:29:52.014Z,100690.11
2019-05-30T04:32:42.859Z,100690.91
2019-05-30T04:35:33.695Z,100680.04
2019-05-30T04:38:24.562Z,100689.11
2019-05-30T04:41:18.701Z,100699.56
2019-05-30T04:44:09.838Z,100701.42
2019-05-30T04:47:00.806Z,100705.17
2019-05-30T04:49:51.586Z,100705.17
2019-05-30T04:52:42.107Z,100708.33
2019-05-30T04:55:32.732Z,100707.56
2019-05-30T04:58:24.401Z,100714.49
2019-05-30T05:01:17.717Z,100709.33
2019-05-30T05:04:08.270Z,100718.16
2019-05-30T05:06:58.839Z,100720.36
2019-05-30T05:09:49.603Z,100711.87
2019-05-30T05:12:40.173Z,100719.95
2019-05-30T05:15:30.755Z,100723.85
2019-05-30T05:18:21.226Z,100722.23
2019-05-30T05:21:12.722Z,100719.47
2019-05-30T05:24:03.380Z,100731.84
2019-05-30T05:26:53.685Z,100727.63
2019-05-30T05:29:44.225Z,100735.67
2019-05-30T05:32:34.837Z,100738.18
2019-05-30T05:35:25.331Z,100742.30
2019-05-30T05:38:16.237Z,100744.47
2019-05-30T05:41:06.825Z,100744.05
2019-05-30T05:43:57.397Z,100751.44
2019-05-30T05:46:47.827Z,100752.59
2019-05-30T05:49:38.475Z,100757.00
2019-05-30T05:52:29.315Z,100753.59
2019-05-30T05:55:20.887Z,100756.57
2019-05-30T05:58:11.282Z,100763.11
2019-05-30T06:01:01.768Z,100762.77
2019-05-30T06:03:52.044Z,100761.28
2019-05-30T06:06:42.627Z,100765.95
2019-05-30T06:09:32.894Z,100768.16
2019-05-30T06:12:24.255Z,100762.67
2019-05-30T06:15:14.534Z,100767.25
2019-05-30T06:18:04.827Z,100768.91
2019-05-30T06:20:55.297Z,100771.42
2019-05-30T06:23:46.220Z,100766.41
2019-05-30T06:26:37.092Z,100769.99
2019-05-30T06:29:28.411Z,100774.87
2019-05-30T06:32:20.930Z,100772.30
2019-05-30T06:35:12.463Z,100771.97
2019-05-30T06:38:02.874Z,100777.00
2019-05-30T06:40:53.435Z,100779.30
2019-05-30T06:43:43.849Z,100783.92
2019-05-30T06:46:34.356Z,100791.95
2019-05-30T06:49:24.869Z,100790.55
2019-05-30T06:52:15.478Z,100798.30
2019-05-30T06:55:06.353Z,100791.00
2019-05-30T06:57:57.040Z,100797.14
2019-05-30T07:00:47.604Z,100785.39
2019-05-30T07:03:38.204Z,100786.02
2019-05-30T07:06:29.518Z,100788.06
2019-05-30T07:09:20.673Z,100790.80
2019-05-30T07:12:12.111Z,100790.35
2019-05-30T07:15:02.985Z,100788.92
2019-05-30T07:17:53.655Z,100793.08
2019-05-30T07:20:44.269Z,100805.12
2019-05-30T07:23:34.697Z,100805.91
2019-05-30T07:26:26.064Z,100812.08
2019-05-30T07:29:16.614Z,100814.94
2019-05-30T07:32:07.541Z,100818.83
2019-05-30T07:35:06.856Z,100813.72
2019-05-30T07:37:49.824Z,100825.53
2019-05-30T07:40:40.358Z,100802.05
2019-05-30T07:43:32.304Z,100808.75
2019-05-30T07:46:23.195Z,100807.19
2019-05-30T07:49:13.899Z,100818.57
2019-05-30T07:52:04.213Z,100815.28
2019-05-30T07:54:54.612Z,100819.52
2019-05-30T07:57:44.958Z,100821.16
2019-05-30T08:00:35.726Z,100815.50
2019-05-30T08:03:26.491Z,100814.91
2019-05-30T08:06:16.803Z,100820.22
2019-05-30T08:09:08.076Z,100818.61
2019-05-30T08:11:59.191Z,100818.34
2019-05-30T08:14:49.717Z,100806.08
2019-05-30T08:17:44.096Z,100806.08
2019-05-30T08:20:33.830Z,100803.55
2019-05-30T08:23:24.657Z,100808.30
2019-05-30T08:26:18.212Z,100816.00
2019-05-30T08:29:07.606Z,100816.00
2019-05-30T08:31:58.382Z,100830.27
2019-05-30T08:34:49.239Z,100830.27
2019-05-30T08:37:39.990Z,100834.31
2019-05-30T08:40:31.162Z,100850.27
2019-05-30T08:43:21.773Z,100845.84
2019-05-30T08:46:12.765Z,100845.84
2019-05-30T08:49:03.688Z,100846.28
2019-05-30T08:51:54.597Z,100835.28
2019-05-30T08:54:45.559Z,100828.92
2019-05-30T08:57:36.678Z,100825.49
2019-05-30T09:00:28.286Z,100827.87
2019-05-30T09:03:18.814Z,100834.39
2019-05-30T09:06:09.567Z,100834.39
2019-05-30T09:09:00.526Z,100840.13
2019-05-30T09:11:51.451Z,100848.50
2019-05-30T09:14:42.853Z,100839.92
2019-05-30T09:17:33.521Z,100836.05
2019-05-30T09:20:24.444Z,100836.27
2019-05-30T09:23:14.962Z,100831.93
2019-05-30T09:26:06.091Z,100829.41
2019-05-30T09:28:56.944Z,100829.41
2019-05-30T09:31:48.713Z,100844.92
2019-05-30T09:34:41.233Z,100831.44
2019-05-30T09:37:32.031Z,100831.44
2019-05-30T09:40:22.815Z,100831.92
2019-05-30T09:43:13.831Z,100839.26
2019-05-30T09:46:04.588Z,100842.06
2019-05-30T09:48:55.568Z,100836.95
2019-05-30T09:51:47.015Z,100848.25
2019-05-30T09:54:39.215Z,100846.94
2019-05-30T09:57:30.048Z,100843.08
2019-05-30T10:00:20.713Z,100846.88
2019-05-30T10:03:11.453Z,100845.79
2019-05-30T10:06:02.300Z,100841.69
2019-05-30T10:08:53.169Z,100843.77
2019-05-30T10:11:44.444Z,100842.47
2019-05-30T10:14:36.564Z,100837.28
2019-05-30T10:17:27.436Z,100841.38
2019-05-30T10:20:19.309Z,100835.36
2019-05-30T10:23:10.268Z,100836.34
2019-05-30T10:26:00.852Z,100839.61
2019-05-30T10:28:51.713Z,100838.38
2019-05-30T10:31:42.233Z,100847.08
2019-05-30T10:34:32.956Z,100852.56
2019-05-30T10:37:23.566Z,100844.31
2019-05-30T10:40:15.613Z,100852.08
2019-05-30T10:43:08.511Z,100851.33
2019-05-30T10:45:59.208Z,100851.83
2019-05-30T10:48:50.880Z,100849.12
2019-05-30T10:51:42.096Z,100846.55
2019-05-30T10:54:32.987Z,100844.94
2019-05-30T10:57:24.020Z,100847.34
2019-05-30T11:00:16.314Z,100851.77
2019-05-30T11:03:07.323Z,100848.03
2019-05-30T11:06:25.623Z,100852.09
2019-05-30T11:09:16.606Z,100848.31
2019-05-30T11:12:07.405Z,100848.20
2019-05-30T11:14:58.209Z,100846.66
2019-05-30T11:17:51.562Z,100849.17
2019-05-30T11:20:41.335Z,100851.52
2019-05-30T11:23:32.551Z,100844.88
2019-05-30T11:26:23.463Z,100847.15
2019-05-30T11:29:14.370Z,100854.67
2019-05-30T11:32:05.291Z,100851.13
2019-05-30T11:34:57.429Z,100843.77
2019-05-30T11:37:51.049Z,100846.97
2019-05-30T11:40:42.082Z,100850.22
2019-05-30T11:43:32.779Z,100839.94
2019-05-30T11:46:23.803Z,100837.44
2019-05-30T11:49:14.918Z,100836.36
2019-05-30T11:52:05.580Z,100838.48
2019-05-30T11:54:58.084Z,100832.89
2019-05-30T11:57:50.002Z,100827.23
2019-05-30T12:00:40.841Z,100829.69
2019-05-30T12:03:31.877Z,100824.80
2019-05-30T12:06:22.685Z,100821.20
2019-05-30T12:09:14.632Z,100817.01
2019-05-30T12:12:05.566Z,100821.72
2019-05-30T12:14:57.362Z,100814.94
2019-05-30T12:17:48.140Z,100811.83
2019-05-30T12:20:38.975Z,100816.09
2019-05-30T12:23:29.803Z,100808.64
2019-05-30T12:26:21.603Z,100808.29
2019-05-30T12:29:12.696Z,100805.14
2019-05-30T12:32:03.566Z,100804.95
2019-05-30T12:34:54.392Z,100799.05
2019-05-30T12:37:55.005Z,100804.53
2019-05-30T12:40:38.116Z,100800.89
2019-05-30T12:43:29.999Z,100794.82
2019-05-30T12:46:21.664Z,100788.91
2019-05-30T12:49:12.442Z,100786.09
2019-05-30T12:52:03.368Z,100796.36
2019-05-30T12:54:54.473Z,100790.69
2019-05-30T12:57:45.414Z,100781.97
2019-05-30T13:00:36.820Z,100773.58
2019-05-30T13:03:27.753Z,100774.76
2019-05-30T13:06:18.380Z,100775.78
2019-05-30T13:09:09.410Z,100769.45
2019-05-30T13:12:00.556Z,100764.08
2019-05-30T13:14:51.654Z,100755.52
2019-05-30T13:17:42.500Z,100754.25
2019-05-30T13:20:33.541Z,100746.41
2019-05-30T13:23:24.068Z,100749.00
2019-05-30T13:26:14.949Z,100740.72
2019-05-30T13:29:06.545Z,100738.84
2019-05-30T13:31:58.431Z,100746.36
2019-05-30T13:34:50.196Z,100744.05
2019-05-30T13:37:42.132Z,100740.68
2019-05-30T13:40:32.949Z,100740.55
2019-05-30T13:43:24.133Z,100745.27
2019-05-30T13:46:14.701Z,100742.59
2019-05-30T13:49:06.643Z,100739.36
2019-05-30T13:51:58.927Z,100745.45
2019-05-30T13:54:49.889Z,100741.11
2019-05-30T13:57:40.670Z,100750.23
2019-05-30T14:00:31.394Z,100738.72
2019-05-30T14:03:22.238Z,100735.12
2019-05-30T14:06:13.488Z,100735.95
2019-05-30T14:09:04.862Z,100739.13
2019-05-30T14:11:56.166Z,100741.87
2019-05-30T14:14:48.197Z,100737.69
2019-05-30T14:17:40.033Z,100736.53
2019-05-30T14:20:30.843Z,100737.92
2019-05-30T14:23:21.743Z,100742.05
2019-05-30T14:26:12.566Z,100749.42
2019-05-30T14:29:03.944Z,100744.47
2019-05-30T14:31:54.690Z,100749.73
2019-05-30T14:34:45.552Z,100749.19
2019-05-30T14:37:36.345Z,100750.16
2019-05-30T14:40:28.019Z,100750.25
2019-05-30T14:43:18.844Z,100754.48
2019-05-30T14:46:10.329Z,100754.70
2019-05-30T14:49:00.891Z,100745.00
2019-05-30T14:51:51.924Z,100752.91
2019-05-30T14:54:42.960Z,100749.19
2019-05-30T14:57:34.156Z,100748.15
2019-05-30T15:00:24.885Z,100742.31
2019-05-30T15:03:16.077Z,100745.52
2019-05-30T15:06:09.195Z,100737.80
2019-05-30T15:09:14.440Z,100735.92
2019-05-30T15:11:52.630Z,100727.42
2019-05-30T15:14:43.411Z,100726.16
2019-05-30T15:17:34.412Z,100725.75
2019-05-30T15:20:25.463Z,100720.88
2019-05-30T15:23:16.298Z,100721.76
2019-05-30T15:26:07.899Z,100723.22
2019-05-30T15:28:58.753Z,100714.75
2019-05-30T15:31:49.523Z,100713.00
2019-05-30T15:34:40.413Z,100708.89
2019-05-30T15:37:31.086Z,100710.23
2019-05-30T15:40:22.369Z,100708.36
2019-05-30T15:43:13.419Z,100706.25
2019-05-30T15:46:03.961Z,100702.23
2019-05-30T15:48:54.603Z,100703.28
2019-05-30T15:51:45.424Z,100701.39
2019-05-30T15:54:36.326Z,100694.23
2019-05-30T15:57:27.130Z,100699.92
2019-05-30T16:00:19.771Z,100700.95
2019-05-30T16:03:10.573Z,100699.25
2019-05-30T16:06:01.563Z,100698.00
2019-05-30T16:08:52.625Z,100695.79
2019-05-30T16:11:44.835Z,100702.16
2019-05-30T16:14:35.756Z,100699.73
2019-05-30T16:17:26.669Z,100700.02
2019-05-30T16:20:18.003Z,100706.95
2019-05-30T16:23:08.561Z,100707.52
2019-05-30T16:25:59.083Z,100699.28
2019-05-30T16:28:49.894Z,100687.55
2019-05-30T16:31:40.547Z,100685.45
2019-05-30T16:34:32.832Z,100688.50
2019-05-30T16:37:23.735Z,100698.22
2019-05-30T16:40:16.243Z,100695.69
2019-05-30T16:43:08.091Z,100698.00
2019-05-30T16:45:58.818Z,100706.44
2019-05-30T16:48:49.561Z,100706.32
2019-05-30T16:51:40.670Z,100704.31
2019-05-30T16:54:31.535Z,100705.89
2019-05-30T16:57:22.735Z,100706.62
2019-05-30T17:00:15.707Z,100705.45
2019-05-30T17:03:06.803Z,100710.59
2019-05-30T17:05:57.591Z,100706.71
2019-05-30T17:08:48.334Z,100705.29
2019-05-30T17:11:39.300Z,100708.59
2019-05-30T17:14:30.317Z,100712.52
2019-05-30T17:17:22.063Z,100700.91
2019-05-30T17:20:13.312Z,100702.62
2019-05-30T17:23:03.994Z,100704.30
2019-05-30T17:25:55.053Z,100694.98
2019-05-30T17:28:45.697Z,100702.38
2019-05-30T17:31:36.606Z,100701.14
2019-05-30T17:34:28.194Z,100707.94
2019-05-30T17:37:20.197Z,100703.08
2019-05-30T17:40:11.015Z,100706.93
2019-05-30T17:43:01.607Z,100711.23
2019-05-30T17:45:52.364Z,100706.69
2019-05-30T17:48:43.309Z,100707.89
2019-05-30T17:51:34.185Z,100701.61
2019-05-30T17:54:25.983Z,100709.30
2019-05-30T17:57:16.936Z,100702.58
2019-05-30T18:00:08.064Z,100700.12
2019-05-30T18:02:58.740Z,100703.62
2019-05-30T18:05:49.564Z,100705.58
2019-05-30T18:08:40.432Z,100701.63
2019-05-30T18:11:31.526Z,100708.45
2019-05-30T18:14:23.076Z,100713.58
2019-05-30T18:17:13.902Z,100718.43
2019-05-30T18:20:05.862Z,100723.16
2019-05-30T18:22:56.997Z,100732.96
2019-05-30T18:25:47.781Z,100743.42
2019-05-30T18:28:38.612Z,100767.95
2019-05-30T18:31:30.157Z,100780.23
2019-05-30T18:34:22.232Z,100792.06
2019-05-30T18:37:13.268Z,100788.75
2019-05-30T18:40:05.567Z,100783.02
2019-05-30T18:42:56.344Z,100781.88
2019-05-30T18:45:47.150Z,100775.83
2019-05-30T18:48:37.885Z,100782.02
2019-05-30T18:51:32.580Z,100780.77
2019-05-30T18:54:24.392Z,100771.73
2019-05-30T18:57:15.299Z,100767.41
2019-05-30T19:00:06.757Z,100773.77
2019-05-30T19:02:56.808Z,100766.36
2019-05-30T19:05:48.533Z,100776.42
2019-05-30T19:08:38.725Z,100777.75
2019-05-30T19:11:33.401Z,100787.97
2019-05-30T19:14:20.813Z,100792.26
2019-05-30T19:17:11.475Z,100790.27
2019-05-30T19:20:02.401Z,100791.23
2019-05-30T19:22:53.277Z,100794.91
2019-05-30T19:25:44.248Z,100799.98
2019-05-30T19:28:35.031Z,100800.09
2019-05-30T19:31:26.473Z,100795.11
2019-05-30T19:34:16.528Z,100797.60
2019-05-30T19:37:07.691Z,100795.64
2019-05-30T19:39:58.514Z,100799.36
2019-05-30T19:42:49.182Z,100795.96
2019-05-30T19:45:40.044Z,100794.67
2019-05-30T19:48:32.318Z,100789.84
2019-05-30T19:51:22.914Z,100797.28
2019-05-30T19:54:13.811Z,100798.84
2019-05-30T19:57:04.708Z,100793.86
2019-05-30T19:59:57.328Z,100794.74
2019-05-30T20:02:47.292Z,100794.05
2019-05-30T20:05:38.879Z,100792.47
2019-05-30T20:08:44.753Z,100792.64
2019-05-30T20:11:20.816Z,100790.58
2019-05-30T20:14:11.663Z,100791.78
2019-05-30T20:17:01.889Z,100788.95
2019-05-30T20:19:52.494Z,100784.35
2019-05-30T20:22:43.713Z,100779.72
2019-05-30T20:25:34.532Z,100775.22
2019-05-30T20:28:24.483Z,100773.16
2019-05-30T20:31:14.769Z,100777.31
2019-05-30T20:34:06.816Z,100780.13
2019-05-30T20:36:56.962Z,100781.02
2019-05-30T20:39:47.310Z,100771.47
2019-05-30T20:42:37.513Z,100775.25
2019-05-30T20:45:28.794Z,100769.52
2019-05-30T20:48:19.006Z,100773.85
2019-05-30T20:51:20.861Z,100768.67
2019-05-30T20:54:01.344Z,100764.39
2019-05-30T20:56:52.432Z,100764.55
2019-05-30T20:59:42.916Z,100764.45
2019-05-30T21:02:34.594Z,100765.63
2019-05-30T21:05:25.020Z,100761.86
2019-05-30T21:08:15.057Z,100766.72
2019-05-30T21:11:05.257Z,100765.42
2019-05-30T21:13:55.492Z,100756.00
2019-05-30T21:16:45.990Z,100753.37
2019-05-30T21:19:36.338Z,100756.80
2019-05-30T21:22:27.501Z,100752.20
2019-05-30T21:25:17.653Z,100754.92
2019-05-30T21:28:08.568Z,100758.44
2019-05-30T21:30:59.128Z,100759.39
2019-05-30T21:33:49.665Z,100765.73
2019-05-30T21:36:40.320Z,100762.76
2019-05-30T21:39:30.994Z,100763.61
2019-05-30T21:42:21.046Z,100763.14
2019-05-30T21:45:11.268Z,100773.47
2019-05-30T21:48:01.568Z,100770.08
2019-05-30T21:50:51.753Z,100763.09
2019-05-30T21:53:42.056Z,100770.48
2019-05-30T21:56:32.477Z,100762.21
2019-05-30T21:59:22.867Z,100756.73
2019-05-30T22:02:13.054Z,100753.70
2019-05-30T22:05:03.199Z,100759.46
2019-05-30T22:07:53.164Z,100749.72
2019-05-30T22:10:43.377Z,100740.66
2019-05-30T22:13:33.640Z,100743.86
2019-05-30T22:16:24.038Z,100742.42
2019-05-30T22:19:15.391Z,100741.56
2019-05-30T22:22:05.695Z,100733.56
2019-05-30T22:24:56.102Z,100738.84
2019-05-30T22:27:46.466Z,100734.23
2019-05-30T22:30:37.773Z,100725.81
2019-05-30T22:33:28.308Z,100724.84
2019-05-30T22:36:18.693Z,100725.80
2019-05-30T22:39:09.165Z,100723.19
2019-05-30T22:41:59.054Z,100724.61
2019-05-30T22:44:50.218Z,100715.77
2019-05-30T22:47:40.485Z,100721.23
2019-05-30T22:50:30.760Z,100711.66
2019-05-30T22:53:20.966Z,100709.73
2019-05-30T22:56:11.224Z,100706.30
2019-05-30T22:59:01.234Z,100705.53
2019-05-30T23:01:52.315Z,100696.82
2019-05-30T23:04:43.732Z,100691.70
2019-05-30T23:07:34.132Z,100699.09
2019-05-30T23:10:24.451Z,100691.02
2019-05-30T23:13:14.630Z,100694.95
2019-05-30T23:16:05.000Z,100688.20
2019-05-30T23:18:55.248Z,100686.36
2019-05-30T23:21:46.711Z,100687.28
2019-05-30T23:24:36.908Z,100681.14
2019-05-30T23:27:27.176Z,100675.42
2019-05-30T23:30:17.447Z,100677.69
2019-05-30T23:33:07.744Z,100673.31
2019-05-30T23:35:58.580Z,100672.59
2019-05-30T23:38:49.038Z,100671.98
2019-05-30T23:41:39.120Z,100675.58
2019-05-30T23:44:29.009Z,100675.88
2019-05-30T23:47:19.390Z,100672.55
2019-05-30T23:50:10.342Z,100677.66
2019-05-30T23:53:00.592Z,100671.91
2019-05-30T23:55:50.685Z,100678.19
2019-05-30T23:58:41.016Z,100677.81
